sensor_id;sensor_type;location;lat;lon;timestamp;pressure;altitude;pressure_sealevel;temperature;humidity
31162;BME280;17796;49.296;-117.656;2023-03-25T00:07:20;96400;;;2.98301;78.64485
31162;BME280;17796;49.296;-117.656;2023-03-25T00:22:24;96400;;;2.31675;79.75552
31162;BME280;17796;49.296;-117.656;2023-03-25T00:37:29;96400;;;3.31996;74.66388
31162;BME280;17796;49.296;-117.656;2023-03-25T00:52:32;96400;;;2.87345;75.18107
31162;BME280;17796;49.296;-117.656;2023-03-25T01:07:36;96400;;;1.74322;81.10694
31162;BME280;17796;49.296;-117.656;2023-03-25T01:22:42;96400;;;2.52349;76.6508
31162;BME280;17796;49.296;-117.656;2023-03-25T01:37:46;96400;;;1.48662;82.69525
31162;BME280;17796;49.296;-117.656;2023-03-25T01:52:50;96400;;;3.66802;71.64392
31162;BME280;17796;49.296;-117.656;2023-03-25T02:07:55;96400;;;2.68196;75.9231
31162;BME280;17796;49.296;-117.656;2023-03-25T02:23:03;96400;;;1.46027;82.91677
31162;BME280;17796;49.296;-117.656;2023-03-25T02:38:31;96400;;;2.82391;75.31976
31162;BME280;17796;49.296;-117.656;2023-03-25T02:53:39;96400;;;2.90076;73.57097
31162;BME280;17796;49.296;-117.656;2023-03-25T03:09:21;96500;;;2.74007;73.70055
31162;BME280;17796;49.296;-117.656;2023-03-25T03:24:31;96500;;;1.71845;78.13446
31162;BME280;17796;49.296;-117.656;2023-03-25T03:39:39;96500;;;2.35676;73.19538
31162;BME280;17796;49.296;-117.656;2023-03-25T03:54:46;96500;;;1.16874;78.54195
31162;BME280;17796;49.296;-117.656;2023-03-25T04:09:55;96500;;;1.28179;76.65223
31162;BME280;17796;49.296;-117.656;2023-03-25T04:25:04;96500;;;0.34752;81.85942
31162;BME280;17796;49.296;-117.656;2023-03-25T04:40:08;96500;;;1.39231;75.50038
31162;BME280;17796;49.296;-117.656;2023-03-25T04:55:14;96500;;;0.68255;76.76662
31162;BME280;17796;49.296;-117.656;2023-03-25T05:10:19;96500;;;0.29035;77.76715
31162;BME280;17796;49.296;-117.656;2023-03-25T05:25:24;96500;;;0.28432;77.25984
31162;BME280;17796;49.296;-117.656;2023-03-25T05:40:28;96500;;;0.32433;76.65141
31162;BME280;17796;49.296;-117.656;2023-03-25T05:55:31;96500;;;0.16111;76.31386
31162;BME280;17796;49.296;-117.656;2023-03-25T06:10:35;96500;;;0.07505;74.99435
31162;BME280;17796;49.296;-117.656;2023-03-25T06:25:39;96500;;;0.08172;75.52512
31162;BME280;17796;49.296;-117.656;2023-03-25T06:40:42;96500;;;-0.27522;75.96797
31162;BME280;17796;49.296;-117.656;2023-03-25T06:55:46;96500;;;-0.67916;76.88003
31162;BME280;17796;49.296;-117.656;2023-03-25T07:10:50;96600;;;-0.56198;77.93817
31162;BME280;17796;49.296;-117.656;2023-03-25T07:25:54;96600;;;-0.54674;79.67333
31162;BME280;17796;49.296;-117.656;2023-03-25T07:40:58;96600;;;-1.16312;81.0807
31162;BME280;17796;49.296;-117.656;2023-03-25T07:56:05;96600;;;-0.69567;79.70199
31162;BME280;17796;49.296;-117.656;2023-03-25T08:11:10;96600;;;-0.92527;80.89309
31162;BME280;17796;49.296;-117.656;2023-03-25T08:26:14;96600;;;-0.8716;79.12332
31162;BME280;17796;49.296;-117.656;2023-03-25T08:41:17;96600;;;-1.74489;83.63784
31162;BME280;17796;49.296;-117.656;2023-03-25T08:56:21;96600;;;-1.17963;80.36082
31162;BME280;17796;49.296;-117.656;2023-03-25T09:11:24;96600;;;-1.4305;81.91726
31162;BME280;17796;49.296;-117.656;2023-03-25T09:26:28;96600;;;-1.50958;83.1803
31162;BME280;17796;49.296;-117.656;2023-03-25T09:41:39;96600;;;-0.79412;77.65967
31162;BME280;17796;49.296;-117.656;2023-03-25T09:56:56;96600;;;-1.19964;80.21187
31162;BME280;17796;49.296;-117.656;2023-03-25T10:12:04;96600;;;-0.94655;78.6148
31162;BME280;17796;49.296;-117.656;2023-03-25T10:27:23;96600;;;-1.06563;78.48877
31162;BME280;17796;49.296;-117.656;2023-03-25T10:42:36;96600;;;-0.86398;78.13797
31162;BME280;17796;49.296;-117.656;2023-03-25T10:57:45;96600;;;-1.15328;77.0643
31162;BME280;17796;49.296;-117.656;2023-03-25T11:12:51;96600;;;-2.07673;81.99524
31162;BME280;17796;49.296;-117.656;2023-03-25T11:27:57;96700;;;-1.49211;78.10429
31162;BME280;17796;49.296;-117.656;2023-03-25T11:43:04;96700;;;-1.39653;75.95236
31162;BME280;17796;49.296;-117.656;2023-03-25T11:58:12;96700;;;-1.54228;77.03296
31162;BME280;17796;49.296;-117.656;2023-03-25T12:13:19;96700;;;-1.20472;74.52051
31162;BME280;17796;49.296;-117.656;2023-03-25T12:28:46;96700;;;-1.8916;78.82639
31162;BME280;17796;49.296;-117.656;2023-03-25T12:44:17;96700;;;-1.90303;78.62417
31162;BME280;17796;49.296;-117.656;2023-03-25T12:59:40;96700;;;-1.9659;78.9929
31162;BME280;17796;49.296;-117.656;2023-03-25T13:14:59;96700;;;-1.58261;75.69571
31162;BME280;17796;49.296;-117.656;2023-03-25T13:30:13;96700;;;-1.9062;77.2649
31162;BME280;17796;49.296;-117.656;2023-03-25T13:45:22;96700;;;-1.67502;77.29783
31162;BME280;17796;49.296;-117.656;2023-03-25T14:00:33;96700;;;-1.90462;77.40098
31162;BME280;17796;49.296;-117.656;2023-03-25T14:15:56;96700;;;-1.49465;80.51891
31162;BME280;17796;49.296;-117.656;2023-03-25T14:31:06;96700;;;-1.18313;79.1142
31162;BME280;17796;49.296;-117.656;2023-03-25T14:46:17;96700;;;-0.62264;78.48843
31162;BME280;17796;49.296;-117.656;2023-03-25T15:01:25;96700;;;-0.64042;79.44597
31162;BME280;17796;49.296;-117.656;2023-03-25T15:16:34;96800;;;-0.0885;77.7216
31162;BME280;17796;49.296;-117.656;2023-03-25T15:32:01;96800;;;-0.58929;82.04983
31162;BME280;17796;49.296;-117.656;2023-03-25T15:47:21;96800;;;0.47232;78.61677
31162;BME280;17796;49.296;-117.656;2023-03-25T16:02:35;96800;;;0.08775;79.24005
31162;BME280;17796;49.296;-117.656;2023-03-25T16:17:46;96800;;;0.90484;77.75046
31162;BME280;17796;49.296;-117.656;2023-03-25T16:32:50;96700;;;1.56919;75.53262
31162;BME280;17796;49.296;-117.656;2023-03-25T16:47:54;96700;;;2.88774;71.483
31162;BME280;17796;49.296;-117.656;2023-03-25T17:03:03;96700;;;2.33453;72.52269
31162;BME280;17796;49.296;-117.656;2023-03-25T17:18:11;96700;;;3.53051;69.28241
31162;BME280;17796;49.296;-117.656;2023-03-25T17:33:18;96700;;;3.15895;61.53047
31162;BME280;17796;49.296;-117.656;2023-03-25T17:48:31;96700;;;3.1399;62.04343
31162;BME280;17796;49.296;-117.656;2023-03-25T18:03:35;96700;;;2.69879;60.61003
31162;BME280;17796;49.296;-117.656;2023-03-25T18:18:38;96700;;;2.69085;60.3279
31162;BME280;17796;49.296;-117.656;2023-03-25T18:33:42;96700;;;2.26721;59.68163
31162;BME280;17796;49.296;-117.656;2023-03-25T18:48:47;96700;;;2.81407;59.35083
31162;BME280;17796;49.296;-117.656;2023-03-25T19:03:50;96700;;;2.50253;56.68285
31162;BME280;17796;49.296;-117.656;2023-03-25T19:18:54;96700;;;3.40666;55.57664
31162;BME280;17796;49.296;-117.656;2023-03-25T19:33:58;96700;;;3.62039;54.09407
31162;BME280;17796;49.296;-117.656;2023-03-25T19:49:02;96700;;;3.48605;54.58784
31162;BME280;17796;49.296;-117.656;2023-03-25T20:04:05;96600;;;3.42349;51.1472
31162;BME280;17796;49.296;-117.656;2023-03-25T20:19:09;96600;;;4.53596;49.20693
31162;BME280;17796;49.296;-117.656;2023-03-25T20:34:13;96600;;;4.10755;47.76617
31162;BME280;17796;49.296;-117.656;2023-03-25T20:49:17;96600;;;4.1482;48.95187
31162;BME280;17796;49.296;-117.656;2023-03-25T21:04:21;96600;;;5.22797;47.4409
31162;BME280;17796;49.296;-117.656;2023-03-25T21:19:25;96600;;;4.21394;46.56664
31162;BME280;17796;49.296;-117.656;2023-03-25T21:34:28;96600;;;3.97067;48.06322
31162;BME280;17796;49.296;-117.656;2023-03-25T21:49:32;96600;;;5.9746;45.35593
31162;BME280;17796;49.296;-117.656;2023-03-25T22:04:35;96600;;;4.53151;50.45331
31162;BME280;17796;49.296;-117.656;2023-03-25T22:19:39;96600;;;3.43206;55.31726
31162;BME280;17796;49.296;-117.656;2023-03-25T22:34:43;96600;;;3.01572;57.14858
31162;BME280;17796;49.296;-117.656;2023-03-25T22:49:46;96600;;;3.61308;54.32671
31162;BME280;17796;49.296;-117.656;2023-03-25T23:04:50;96600;;;4.21425;49.66547
31162;BME280;17796;49.296;-117.656;2023-03-25T23:19:54;96500;;;4.01005;48.70918
31162;BME280;17796;49.296;-117.656;2023-03-25T23:34:57;96500;;;5.67449;45.68039
31162;BME280;17796;49.296;-117.656;2023-03-25T23:50:01;96500;;;4.98819;45.85201
